Saskia A — TCA3543 — position and weather

sailwx.info

Track history (hours):
 
Tides and Currents Weather Stations Pressure Air Temp Water Temp Dewpoint Dewpoint Depression Visibility Wind Speed Wind Dir Waves Ship Positions

Saskia A

Last reported at 2017-Oct-20 02:18 UTC. Time now 2017-Oct-20 11:02 UTC.
Position N 35°55' E 032°41'.

Length 222 m; draft 10.5 m.

Type: Ship (hazmat cat A). MMSI: 271044177.

Date/timePositionNaut miles runAvg speedWind from/ knotsBaromVisibWave heightAir tempDewpointWater temp
2017-Oct-20 02:18N 35°55' E 032°41'2311.5
2017-Oct-20 00:17N 35°56' E 032°13'511.9
2017-Oct-19 23:52N 35°57' E 032°07'411.7
2017-Oct-19 23:29N 35°57' E 032°01'611.7
2017-Oct-19 23:00N 35°57' E 031°54'611.8
2017-Oct-19 22:30N 35°58' E 031°47'611.8
2017-Oct-19 22:00N 35°58' E 031°40'612.1
2017-Oct-19 21:30N 35°58' E 031°32'612.0
2017-Oct-19 21:00N 35°58' E 031°25'812.0
2017-Oct-19 20:21N 35°59' E 031°15'1911.6
2017-Oct-19 18:42N 36°00' E 030°52'211.5
2017-Oct-19 18:30N 36°00' E 030°49'611.6
2017-Oct-19 18:00N 36°01' E 030°42'24412.8
2017-Oct-18 22:58N 37°24' E 025°55'714.4
2017-Oct-18 22:30N 37°28' E 025°48'612.7
2017-Oct-18 22:00N 37°34' E 025°45'714.5
2017-Oct-18 21:30N 37°41' E 025°45'122 5.3
2017-Oct-17 22:30N 39°43' E 025°47'1016.8
2017-Oct-17 21:54N 39°52' E 025°51'717.6
2017-Oct-17 21:30N 39°58' E 025°56'816.4
2017-Oct-17 21:00N 40°01' E 026°06'13513.2
2017-Oct-17 10:45N 40°25' E 029°00'311.6
2017-Oct-17 10:30N 40°25' E 029°04'1 0.1
2017-Oct-17 02:14N 40°25' E 029°05'0 0.0
2017-Oct-17 01:44N 40°25' E 029°05'0 0.0
2017-Oct-17 01:26N 40°25' E 029°05'0 0.0
2017-Oct-17 00:56N 40°25' E 029°05'0 0.0
2017-Oct-17 00:26N 40°25' E 029°05'0 0.0
2017-Oct-16 17:03N 40°25' E 029°05'0 0.0
2017-Oct-16 17:00N 40°25' E 029°05'0 0.0
2017-Oct-16 16:27N 40°25' E 029°05'0 0.0
2017-Oct-16 16:00N 40°25' E 029°05'0 0.3
2017-Oct-16 15:23N 40°25' E 029°05'17 7.1
2017-Oct-16 13:01N 40°38' E 028°51'314.6
2017-Oct-16 12:48N 40°40' E 028°55'414.4
2017-Oct-16 12:30N 40°41' E 029°00'714.4
2017-Oct-16 12:00N 40°43' E 029°09'714.1
2017-Oct-16 11:30N 40°44' E 029°18'812.2
2017-Oct-16 10:53N 40°45' E 029°28'7 0.5
2017-Oct-15 20:19N 40°45' E 029°37'412.6
2017-Oct-15 19:59N 40°45' E 029°32'611.5
2017-Oct-15 19:29N 40°44' E 029°24'510.0
2017-Oct-15 19:00N 40°43' E 029°18'5 5.7
2017-Oct-15 18:09N 40°43' E 029°12'0 0.1
2017-Oct-15 17:51N 40°43' E 029°12'0 0.1
2017-Oct-15 17:27N 40°43' E 029°12'0 0.2
2017-Oct-15 16:57N 40°43' E 029°12'0 0.2
2017-Oct-15 16:27N 40°43' E 029°11'0 0.2
2017-Oct-15 15:51N 40°43' E 029°11'0 0.2
2017-Oct-15 15:27N 40°43' E 029°11'0 0.2
2017-Oct-15 14:57N 40°43' E 029°11'0 0.2
2017-Oct-15 13:57N 40°44' E 029°11'0 0.2
2017-Oct-15 13:27N 40°44' E 029°11'0 0.2
2017-Oct-15 12:57N 40°44' E 029°11'0 0.2
2017-Oct-15 12:27N 40°44' E 029°11'0 0.3
2017-Oct-15 11:57N 40°44' E 029°11'0 0.3
2017-Oct-15 11:21N 40°44' E 029°10'0 0.2
2017-Oct-15 10:57N 40°44' E 029°10'0 0.1
2017-Oct-15 10:27N 40°44' E 029°10'0 0.1
2017-Oct-15 09:57N 40°44' E 029°10'0 0.2
2017-Oct-15 09:15N 40°44' E 029°10'0 0.2
2017-Oct-15 08:57N 40°44' E 029°10'0 0.2
2017-Oct-15 08:27N 40°44' E 029°11'0 0.2
2017-Oct-15 07:57N 40°44' E 029°11'0 0.3
2017-Oct-15 07:27N 40°44' E 029°11'0 0.4
2017-Oct-15 07:00N 40°44' E 029°11'0 0.3
2017-Oct-15 06:30N 40°44' E 029°11'5 9.9
2017-Oct-15 06:00N 40°43' E 029°05'813.1
2017-Oct-15 05:25N 40°43' E 028°55'18 0.5
2017-Oct-13 15:18N 40°58' E 028°41'0 0.0
2017-Oct-13 14:58N 40°58' E 028°41'0 0.0
2017-Oct-13 14:17N 40°58' E 028°41'0 0.0
2017-Oct-13 13:57N 40°58' E 028°41'0 0.0
2017-Oct-13 13:30N 40°58' E 028°41'0 0.0
2017-Oct-13 12:59N 40°58' E 028°41'147 6.2
2017-Oct-12 13:19N 39°48' E 025°51'514.9
2017-Oct-12 12:58N 39°42' E 025°51'11711.6
2017-Oct-12 02:56N 37°46' E 025°48'911.2
2017-Oct-12 02:05N 37°37' E 025°51'110.9
2017-Oct-12 02:00N 37°36' E 025°51'510.8
2017-Oct-12 01:30N 37°31' E 025°54'  
Track history (hours):
 
Tides and Currents Weather Stations Pressure Air Temp Water Temp Dewpoint Dewpoint Depression Visibility Wind Speed Wind Dir Waves Ship Positions

Saskia A

Last reported at 2017-Oct-20 02:18 UTC. Time now 2017-Oct-20 11:02 UTC.
Position N 35°55' E 032°41'.

Length 222 m; draft 10.5 m.

Type: Ship (hazmat cat A). MMSI: 271044177.

Date/timePositionNaut miles runAvg speedWind from/ knotsBaromVisibWave heightAir tempDewpointWater temp
2017-Oct-20 02:18N 35°55' E 032°41'2311.5
2017-Oct-20 00:17N 35°56' E 032°13'511.9
2017-Oct-19 23:52N 35°57' E 032°07'411.7
2017-Oct-19 23:29N 35°57' E 032°01'611.7
2017-Oct-19 23:00N 35°57' E 031°54'611.8
2017-Oct-19 22:30N 35°58' E 031°47'611.8
2017-Oct-19 22:00N 35°58' E 031°40'612.1
2017-Oct-19 21:30N 35°58' E 031°32'612.0
2017-Oct-19 21:00N 35°58' E 031°25'812.0
2017-Oct-19 20:21N 35°59' E 031°15'1911.6
2017-Oct-19 18:42N 36°00' E 030°52'211.5
2017-Oct-19 18:30N 36°00' E 030°49'611.6
2017-Oct-19 18:00N 36°01' E 030°42'24412.8
2017-Oct-18 22:58N 37°24' E 025°55'714.4
2017-Oct-18 22:30N 37°28' E 025°48'612.7
2017-Oct-18 22:00N 37°34' E 025°45'714.5
2017-Oct-18 21:30N 37°41' E 025°45'122 5.3
2017-Oct-17 22:30N 39°43' E 025°47'1016.8
2017-Oct-17 21:54N 39°52' E 025°51'717.6
2017-Oct-17 21:30N 39°58' E 025°56'816.4
2017-Oct-17 21:00N 40°01' E 026°06'13513.2
2017-Oct-17 10:45N 40°25' E 029°00'311.6
2017-Oct-17 10:30N 40°25' E 029°04'1 0.1
2017-Oct-17 02:14N 40°25' E 029°05'0 0.0
2017-Oct-17 01:44N 40°25' E 029°05'0 0.0
2017-Oct-17 01:26N 40°25' E 029°05'0 0.0
2017-Oct-17 00:56N 40°25' E 029°05'0 0.0
2017-Oct-17 00:26N 40°25' E 029°05'0 0.0
2017-Oct-16 17:03N 40°25' E 029°05'0 0.0
2017-Oct-16 17:00N 40°25' E 029°05'0 0.0
2017-Oct-16 16:27N 40°25' E 029°05'0 0.0
2017-Oct-16 16:00N 40°25' E 029°05'0 0.3
2017-Oct-16 15:23N 40°25' E 029°05'17 7.1
2017-Oct-16 13:01N 40°38' E 028°51'314.6
2017-Oct-16 12:48N 40°40' E 028°55'414.4
2017-Oct-16 12:30N 40°41' E 029°00'714.4
2017-Oct-16 12:00N 40°43' E 029°09'714.1
2017-Oct-16 11:30N 40°44' E 029°18'812.2
2017-Oct-16 10:53N 40°45' E 029°28'7 0.5
2017-Oct-15 20:19N 40°45' E 029°37'412.6
2017-Oct-15 19:59N 40°45' E 029°32'611.5
2017-Oct-15 19:29N 40°44' E 029°24'510.0
2017-Oct-15 19:00N 40°43' E 029°18'5 5.7
2017-Oct-15 18:09N 40°43' E 029°12'0 0.1
2017-Oct-15 17:51N 40°43' E 029°12'0 0.1
2017-Oct-15 17:27N 40°43' E 029°12'0 0.2
2017-Oct-15 16:57N 40°43' E 029°12'0 0.2
2017-Oct-15 16:27N 40°43' E 029°11'0 0.2
2017-Oct-15 15:51N 40°43' E 029°11'0 0.2
2017-Oct-15 15:27N 40°43' E 029°11'0 0.2
2017-Oct-15 14:57N 40°43' E 029°11'0 0.2
2017-Oct-15 13:57N 40°44' E 029°11'0 0.2
2017-Oct-15 13:27N 40°44' E 029°11'0 0.2
2017-Oct-15 12:57N 40°44' E 029°11'0 0.2
2017-Oct-15 12:27N 40°44' E 029°11'0 0.3
2017-Oct-15 11:57N 40°44' E 029°11'0 0.3
2017-Oct-15 11:21N 40°44' E 029°10'0 0.2
2017-Oct-15 10:57N 40°44' E 029°10'0 0.1
2017-Oct-15 10:27N 40°44' E 029°10'0 0.1
2017-Oct-15 09:57N 40°44' E 029°10'0 0.2
2017-Oct-15 09:15N 40°44' E 029°10'0 0.2
2017-Oct-15 08:57N 40°44' E 029°10'0 0.2
2017-Oct-15 08:27N 40°44' E 029°11'0 0.2
2017-Oct-15 07:57N 40°44' E 029°11'0 0.3
2017-Oct-15 07:27N 40°44' E 029°11'0 0.4
2017-Oct-15 07:00N 40°44' E 029°11'0 0.3
2017-Oct-15 06:30N 40°44' E 029°11'5 9.9
2017-Oct-15 06:00N 40°43' E 029°05'813.1
2017-Oct-15 05:25N 40°43' E 028°55'18 0.5
2017-Oct-13 15:18N 40°58' E 028°41'0 0.0
2017-Oct-13 14:58N 40°58' E 028°41'0 0.0
2017-Oct-13 14:17N 40°58' E 028°41'0 0.0
2017-Oct-13 13:57N 40°58' E 028°41'0 0.0
2017-Oct-13 13:30N 40°58' E 028°41'0 0.0
2017-Oct-13 12:59N 40°58' E 028°41'147 6.2
2017-Oct-12 13:19N 39°48' E 025°51'514.9
2017-Oct-12 12:58N 39°42' E 025°51'11711.6
2017-Oct-12 02:56N 37°46' E 025°48'911.2
2017-Oct-12 02:05N 37°37' E 025°51'110.9
2017-Oct-12 02:00N 37°36' E 025°51'510.8
2017-Oct-12 01:30N 37°31' E 025°54'  

Dump ship's entire track history